Time;durP1;ratioP1;P1;durP2;ratioP2;P2;SDS_P1;SDS_P2;PMS_P1;PMS_P2;Temp;Humidity;BMP_temperature;BMP_pressure;BME280_temperature;BME280_humidity;BME280_pressure;Samples;Min_cycle;Max_cycle;Signal;HPM_P1;HPM_P2
2022/05/09 00:01:20;;;;;;;4.38;3.33;;;14.30;99.90;;;;;;5075563;28;20121;-70
2022/05/09 00:03:45;;;;;;;6.30;3.72;;;14.20;99.90;;;;;;5075363;28;20051;-71
2022/05/09 00:06:12;;;;;;;8.25;3.65;;;14.30;99.90;;;;;;5075097;28;20036;-71
2022/05/09 00:08:39;;;;;;;6.45;3.60;;;14.20;99.90;;;;;;5074703;28;20087;-69
2022/05/09 00:11:06;;;;;;;5.85;3.38;;;14.20;99.90;;;;;;5074964;28;20024;-70
2022/05/09 00:13:32;;;;;;;6.13;3.65;;;14.30;99.90;;;;;;5074931;28;20048;-71
2022/05/09 00:15:57;;;;;;;5.25;3.60;;;14.40;99.90;;;;;;5075115;28;20174;-71
2022/05/09 00:18:24;;;;;;;7.05;3.90;;;14.40;99.90;;;;;;5075087;28;20072;-71
2022/05/09 00:20:49;;;;;;;5.00;4.03;;;14.30;99.90;;;;;;5074752;28;20101;-68
2022/05/09 00:23:15;;;;;;;4.30;3.70;;;14.30;99.90;;;;;;5075020;28;20717;-71
2022/05/09 00:25:41;;;;;;;7.32;4.40;;;14.30;99.90;;;;;;5074769;28;20036;-71
2022/05/09 00:28:07;;;;;;;6.35;4.32;;;14.30;99.90;;;;;;5074625;28;20496;-71
2022/05/09 00:30:33;;;;;;;6.80;3.78;;;14.30;99.90;;;;;;5074872;28;20036;-71
2022/05/09 00:32:58;;;;;;;4.55;3.55;;;14.20;99.90;;;;;;5074832;28;20058;-68
2022/05/09 00:35:24;;;;;;;5.53;4.00;;;14.20;99.90;;;;;;5074979;28;20043;-71
2022/05/09 00:37:50;;;;;;;6.97;3.95;;;14.20;99.90;;;;;;5074676;28;20032;-71
2022/05/09 00:40:16;;;;;;;5.60;3.90;;;14.20;99.90;;;;;;5074812;28;20587;-71
2022/05/09 00:43:02;;;;;;;5.55;3.88;;;14.20;99.90;;;;;;5074973;28;20085;-71
2022/05/09 00:45:28;;;;;;;5.93;4.07;;;14.10;99.90;;;;;;5074034;28;20488;-71
2022/05/09 00:47:54;;;;;;;7.20;4.85;;;;;;;;;;5073844;28;20051;-69
2022/05/09 00:50:24;;;;;;;6.07;4.30;;;14.00;99.90;;;;;;5074345;28;20044;-69
2022/05/09 00:52:53;;;;;;;8.25;4.07;;;14.00;99.90;;;;;;5074582;28;20044;-70
2022/05/09 00:55:26;;;;;;;4.63;3.90;;;14.10;99.90;;;;;;5074119;28;20041;-71
2022/05/09 00:57:58;;;;;;;5.25;4.15;;;14.00;99.90;;;;;;5073788;28;20040;-71
2022/05/09 01:00:25;;;;;;;6.35;4.47;;;14.10;99.90;;;;;;5073779;28;20036;-71
2022/05/09 01:02:59;;;;;;;6.15;4.30;;;14.00;99.90;;;;;;5074068;28;20146;-69
2022/05/09 01:05:28;;;;;;;6.07;4.38;;;14.00;99.90;;;;;;5074302;28;20028;-70
2022/05/09 01:07:55;;;;;;;9.70;4.45;;;14.00;99.90;;;;;;5074003;28;20048;-71
2022/05/09 01:10:31;;;;;;;4.57;3.95;;;13.90;99.90;;;;;;5073919;28;20041;-70
2022/05/09 01:13:01;;;;;;;6.22;4.05;;;13.90;99.90;;;;;;5073826;28;20047;-70
2022/05/09 01:15:26;;;;;;;8.95;4.55;;;13.90;99.90;;;;;;5073848;28;20115;-70
2022/05/09 01:17:52;;;;;;;5.35;3.72;;;14.00;99.90;;;;;;5073932;28;20181;-68
2022/05/09 01:20:18;;;;;;;6.43;4.20;;;14.00;99.90;;;;;;5073863;28;20086;-71
2022/05/09 01:22:44;;;;;;;6.00;4.30;;;13.90;99.90;;;;;;5073514;28;20048;-70
2022/05/09 01:25:13;;;;;;;6.40;3.97;;;13.90;99.90;;;;;;5073580;28;20043;-72
2022/05/09 01:27:41;;;;;;;4.78;3.58;;;;;;;;;;5073419;28;20384;-71
2022/05/09 01:30:19;;;;;;;5.95;4.03;;;13.80;99.90;;;;;;5072618;28;20036;-71
2022/05/09 01:32:58;;;;;;;5.63;4.63;;;13.80;99.90;;;;;;5072956;28;20043;-71
2022/05/09 01:35:32;;;;;;;6.40;3.90;;;13.80;99.90;;;;;;5073358;28;20033;-70
2022/05/09 01:38:19;;;;;;;8.02;4.70;;;13.80;99.90;;;;;;5073014;28;20048;-71
2022/05/09 01:40:45;;;;;;;6.85;4.20;;;13.80;99.90;;;;;;5073493;28;20124;-70
2022/05/09 01:43:11;;;;;;;6.72;4.38;;;13.80;99.90;;;;;;5070600;28;20425;-71
2022/05/09 01:45:37;;;;;;;4.45;4.05;;;13.70;99.90;;;;;;5057161;28;20033;-70
2022/05/09 01:50:48;;;;;;;8.82;4.72;;;13.60;99.90;;;;;;5053036;28;20043;-69
2022/05/09 01:53:15;;;;;;;7.80;4.28;;;13.60;99.90;;;;;;5052920;28;20040;-71
2022/05/09 01:55:41;;;;;;;6.85;4.38;;;13.40;99.90;;;;;;5053297;28;20587;-71
2022/05/09 01:58:06;;;;;;;5.82;4.13;;;13.40;99.90;;;;;;5052907;28;20094;-69
2022/05/09 02:00:34;;;;;;;5.13;4.07;;;13.50;99.90;;;;;;5053346;28;20053;-70
2022/05/09 02:03:01;;;;;;;6.65;4.47;;;13.60;99.90;;;;;;5053134;28;20116;-70
2022/05/09 02:05:26;;;;;;;6.78;4.43;;;13.60;99.90;;;;;;5053003;28;20044;-71
2022/05/09 02:07:53;;;;;;;8.75;4.65;;;13.50;99.90;;;;;;5052889;28;20053;-69
2022/05/09 02:10:19;;;;;;;4.68;4.22;;;13.40;99.90;;;;;;5052939;28;20396;-70
2022/05/09 02:12:45;;;;;;;6.85;4.07;;;13.40;99.90;;;;;;5052882;28;20534;-70
2022/05/09 02:15:11;;;;;;;6.47;4.75;;;13.40;99.90;;;;;;5051572;28;20040;-71
2022/05/09 02:17:37;;;;;;;10.68;4.45;;;13.40;99.90;;;;;;5052438;28;20052;-71
2022/05/09 02:20:05;;;;;;;6.25;5.00;;;13.30;99.90;;;;;;5052943;28;20037;-70
2022/05/09 02:22:32;;;;;;;11.60;5.15;;;13.30;99.90;;;;;;5052940;28;20041;-70
2022/05/09 02:24:58;;;;;;;6.82;4.68;;;13.20;99.90;;;;;;5052849;28;20064;-68
2022/05/09 02:27:24;;;;;;;6.13;4.80;;;13.20;99.90;;;;;;5052687;28;20126;-71
2022/05/09 02:29:50;;;;;;;6.30;4.68;;;13.20;99.90;;;;;;5052820;28;20495;-71
2022/05/09 02:32:16;;;;;;;6.57;4.68;;;13.20;99.90;;;;;;5052768;28;20072;-71
2022/05/09 02:34:42;;;;;;;7.75;4.63;;;13.20;99.90;;;;;;5060040;28;20137;-70
2022/05/09 02:37:08;;;;;;;4.90;4.13;;;13.30;99.90;;;;;;5072632;28;20044;-69
2022/05/09 02:39:34;;;;;;;9.43;4.63;;;13.30;99.90;;;;;;5072642;28;20048;-71
2022/05/09 02:42:00;;;;;;;7.05;4.60;;;13.30;99.90;;;;;;5072716;28;20031;-70
2022/05/09 02:44:28;;;;;;;7.97;4.45;;;13.20;99.90;;;;;;5075046;28;20041;-70
2022/05/09 02:46:54;;;;;;;6.40;4.50;;;13.20;99.90;;;;;;5076725;28;20067;-70
2022/05/09 02:49:20;;;;;;;7.40;5.03;;;13.20;99.90;;;;;;5076854;28;20523;-70
2022/05/09 02:51:48;;;;;;;5.43;4.30;;;13.10;99.90;;;;;;5076853;28;20036;-71
2022/05/09 02:54:14;;;;;;;5.13;4.40;;;13.20;99.90;;;;;;5076762;28;20499;-70
2022/05/09 02:56:40;;;;;;;9.85;4.70;;;13.20;99.90;;;;;;5076259;28;20040;-69
2022/05/09 02:59:05;;;;;;;5.03;4.30;;;13.20;99.90;;;;;;5076241;28;20068;-70
2022/05/09 03:01:31;;;;;;;5.68;4.35;;;13.10;99.90;;;;;;5076241;28;20075;-68
2022/05/09 03:06:41;;;;;;;7.10;5.03;;;13.00;99.90;;;;;;5076484;28;20032;-71
2022/05/09 03:09:07;;;;;;;9.25;4.88;;;13.10;99.90;;;;;;5076526;28;20045;-71
2022/05/09 03:11:33;;;;;;;7.13;4.60;;;13.10;99.90;;;;;;5076126;28;20111;-71
2022/05/09 03:13:58;;;;;;;6.88;4.88;;;13.10;99.90;;;;;;5076156;28;20545;-70
2022/05/09 03:16:24;;;;;;;7.60;4.38;;;13.10;99.90;;;;;;5076329;28;20040;-69
2022/05/09 03:18:51;;;;;;;5.68;4.97;;;13.10;99.90;;;;;;5076388;28;20029;-71
2022/05/09 03:21:18;;;;;;;7.80;5.50;;;13.10;99.90;;;;;;5075943;28;20048;-70
2022/05/09 03:23:43;;;;;;;6.80;4.97;;;13.10;99.90;;;;;;5075868;28;20037;-71
2022/05/09 03:26:09;;;;;;;10.13;5.47;;;13.20;99.90;;;;;;5075858;28;20045;-70
2022/05/09 03:28:35;;;;;;;7.35;5.53;;;13.10;99.90;;;;;;5075795;28;20052;-68
2022/05/09 03:31:00;;;;;;;6.18;4.95;;;13.10;99.90;;;;;;5075666;28;20043;-71
2022/05/09 03:33:27;;;;;;;7.95;5.50;;;13.10;99.90;;;;;;5075494;28;20040;-71
2022/05/09 03:35:54;;;;;;;8.52;5.30;;;13.20;99.90;;;;;;5075704;28;20119;-70
2022/05/09 03:38:21;;;;;;;8.68;5.70;;;13.10;99.90;;;;;;5075835;28;20075;-71
2022/05/09 03:40:46;;;;;;;6.43;5.05;;;13.10;99.90;;;;;;5075788;28;20449;-71
2022/05/09 03:43:13;;;;;;;10.02;5.38;;;13.00;99.90;;;;;;5074693;28;20025;-68
2022/05/09 03:45:45;;;;;;;6.78;4.57;;;12.70;99.90;;;;;;5067176;28;20056;-68
2022/05/09 03:48:11;;;;;;;9.07;5.30;;;12.40;99.90;;;;;;5052551;28;20052;-70
2022/05/09 03:50:37;;;;;;;7.20;5.53;;;12.50;99.90;;;;;;5054366;28;20453;-69
2022/05/09 03:53:03;;;;;;;6.45;5.13;;;12.40;99.90;;;;;;5054025;28;20045;-68
2022/05/09 03:55:28;;;;;;;8.65;5.70;;;12.40;99.90;;;;;;5052852;28;20049;-70
2022/05/09 03:57:56;;;;;;;9.15;5.57;;;12.60;99.90;;;;;;5053615;28;20124;-70
2022/05/09 04:00:27;;;;;;;5.93;4.97;;;12.60;99.90;;;;;;5053408;28;20044;-68
2022/05/09 04:02:53;;;;;;;7.35;4.70;;;12.70;99.90;;;;;;5053972;28;20061;-70
2022/05/09 04:05:19;;;;;;;6.78;5.50;;;12.70;99.90;;;;;;5054438;28;20040;-70
2022/05/09 04:07:48;;;;;;;6.97;5.30;;;12.80;99.90;;;;;;5055207;28;20057;-70
2022/05/09 04:10:16;;;;;;;7.28;5.88;;;12.80;99.90;;;;;;5056054;28;20044;-70
2022/05/09 04:12:42;;;;;;;11.65;5.50;;;12.90;99.90;;;;;;5075227;28;20112;-70
2022/05/09 04:17:53;;;;;;;7.47;6.32;;;12.90;99.90;;;;;;5075222;28;20048;-68
2022/05/09 04:20:20;;;;;;;12.52;5.38;;;12.90;99.90;;;;;;5075061;28;20044;-70
2022/05/09 04:22:45;;;;;;;10.57;6.03;;;12.90;99.90;;;;;;5075116;28;20040;-71
2022/05/09 04:25:12;;;;;;;7.18;5.18;;;12.80;99.90;;;;;;5074949;28;20040;-71
2022/05/09 04:27:38;;;;;;;9.65;5.35;;;12.80;99.90;;;;;;5074476;28;20045;-70
2022/05/09 04:30:07;;;;;;;7.85;5.72;;;12.80;99.90;;;;;;5074799;28;20113;-70
2022/05/09 04:32:34;;;;;;;8.00;6.43;;;12.70;99.90;;;;;;5075194;28;20387;-70
2022/05/09 04:35:00;;;;;;;6.53;5.72;;;12.70;99.90;;;;;;5074832;28;20403;-69
2022/05/09 04:37:25;;;;;;;7.05;5.68;;;12.70;99.90;;;;;;5074787;28;20119;-71
2022/05/09 04:39:51;;;;;;;11.13;5.85;;;12.80;99.90;;;;;;5074796;28;20111;-68
2022/05/09 04:42:17;;;;;;;7.05;5.50;;;12.80;99.90;;;;;;5074542;28;20044;-68
2022/05/09 04:44:43;;;;;;;7.65;5.65;;;13.20;99.90;;;;;;5074101;28;20094;-67
2022/05/09 04:47:09;;;;;;;9.02;6.22;;;13.20;99.90;;;;;;5073046;28;20055;-69
2022/05/09 04:49:35;;;;;;;6.93;5.30;;;13.10;99.90;;;;;;5073471;28;20052;-66
2022/05/09 04:52:00;;;;;;;7.18;5.40;;;13.10;99.90;;;;;;5074555;28;20093;-70
2022/05/09 04:54:28;;;;;;;7.43;5.85;;;13.10;99.90;;;;;;5074088;28;20097;-67
2022/05/09 04:56:54;;;;;;;6.20;5.60;;;13.10;99.90;;;;;;5074393;28;20028;-69
2022/05/09 04:59:20;;;;;;;7.65;5.90;;;13.10;99.90;;;;;;5074377;28;20044;-68
2022/05/09 05:01:45;;;;;;;9.25;5.70;;;13.10;99.90;;;;;;5073906;28;20036;-71
2022/05/09 05:04:11;;;;;;;9.80;5.63;;;13.20;99.90;;;;;;5074034;28;20048;-70
2022/05/09 05:06:37;;;;;;;6.53;5.47;;;13.40;99.90;;;;;;5073104;28;20551;-66
2022/05/09 05:09:03;;;;;;;8.27;6.15;;;13.50;99.90;;;;;;5073781;28;20420;-69
2022/05/09 05:11:28;;;;;;;9.05;6.25;;;13.60;99.90;;;;;;5072849;28;20199;-67
2022/05/09 05:13:54;;;;;;;8.45;5.40;;;13.70;99.90;;;;;;5073672;28;20122;-69
2022/05/09 05:16:59;;;;;;;6.47;5.38;;;13.60;99.90;;;;;;5071437;28;20395;-69
2022/05/09 05:19:06;;;;;;;9.02;5.18;;;13.50;99.90;;;;;;5072500;28;20061;-68
2022/05/09 05:21:32;;;;;;;9.50;5.65;;;13.50;99.90;;;;;;5073053;28;20040;-67
2022/05/09 05:23:59;;;;;;;8.13;5.68;;;13.50;99.90;;;;;;5072948;28;20033;-68
2022/05/09 05:26:25;;;;;;;7.40;5.03;;;13.60;99.90;;;;;;5073353;28;20424;-68
2022/05/09 05:28:50;;;;;;;12.43;5.68;;;13.70;99.90;;;;;;5073801;28;20052;-69
2022/05/09 05:31:20;;;;;;;9.38;5.90;;;13.70;99.90;;;;;;5073489;28;20542;-67
2022/05/09 05:33:47;;;;;;;5.60;5.10;;;13.80;99.90;;;;;;5072541;28;20182;-70
2022/05/09 05:36:14;;;;;;;10.57;5.70;;;13.90;99.90;;;;;;5073557;28;20044;-68
2022/05/09 05:38:40;;;;;;;11.30;5.13;;;14.00;99.90;;;;;;5073504;28;20479;-68
2022/05/09 05:41:05;;;;;;;7.18;5.57;;;13.90;99.90;;;;;;5073439;28;20040;-69
2022/05/09 05:43:31;;;;;;;7.25;4.93;;;14.20;99.90;;;;;;5073443;28;20040;-70
2022/05/09 05:45:57;;;;;;;7.00;5.45;;;14.30;99.90;;;;;;5071487;28;20062;-70
2022/05/09 05:48:24;;;;;;;8.27;5.63;;;14.60;99.90;;;;;;5061867;28;20056;-70
2022/05/09 05:50:51;;;;;;;6.95;5.55;;;14.60;99.90;;;;;;5052305;28;20191;-68
2022/05/09 05:53:16;;;;;;;9.18;6.47;;;14.60;99.90;;;;;;5053531;28;20037;-69
2022/05/09 05:55:42;;;;;;;12.38;9.73;;;14.50;99.90;;;;;;5061448;28;20399;-68
2022/05/09 05:58:08;;;;;;;8.68;6.00;;;14.60;99.90;;;;;;5056537;28;20036;-68
2022/05/09 06:00:34;;;;;;;21.23;15.18;;;14.80;99.90;;;;;;5053250;28;20089;-68
2022/05/09 06:03:00;;;;;;;6.07;5.15;;;15.00;99.90;;;;;;5053497;28;20048;-68
2022/05/09 06:05:25;;;;;;;8.15;5.15;;;15.20;99.90;;;;;;5053140;28;20496;-70
2022/05/09 06:07:55;;;;;;;15.35;10.80;;;15.50;99.90;;;;;;5053411;28;20396;-69
2022/05/09 06:10:22;;;;;;;8.18;6.35;;;15.60;99.90;;;;;;5053193;28;20065;-69
2022/05/09 06:12:48;;;;;;;8.45;5.38;;;15.90;99.90;;;;;;5052637;28;20377;-70
2022/05/09 06:15:25;;;;;;;6.63;5.93;;;15.80;99.90;;;;;;5051679;28;20055;-70
2022/05/09 06:17:56;;;;;;;9.43;5.20;;;15.50;99.90;;;;;;5052443;28;20099;-69
2022/05/09 06:20:22;;;;;;;13.02;8.15;;;15.50;99.90;;;;;;5052882;28;20043;-70
2022/05/09 06:22:48;;;;;;;11.73;7.68;;;15.40;99.90;;;;;;5052980;28;20404;-70
2022/05/09 06:25:17;;;;;;;11.93;8.10;;;15.40;99.90;;;;;;5053034;28;20033;-70
2022/05/09 06:27:43;;;;;;;19.95;10.63;;;15.60;99.90;;;;;;5052468;28;20052;-70
2022/05/09 06:30:12;;;;;;;18.30;10.02;;;15.80;99.90;;;;;;5052387;28;20140;-70
2022/05/09 06:32:39;;;;;;;28.63;13.80;;;15.90;99.90;;;;;;5053178;28;20032;-70
2022/05/09 06:35:08;;;;;;;17.05;8.90;;;15.90;99.90;;;;;;5052992;28;20045;-70
2022/05/09 06:37:35;;;;;;;7.68;5.40;;;16.10;99.90;;;;;;5053113;28;20393;-70
2022/05/09 06:40:01;;;;;;;9.65;6.88;;;16.10;99.90;;;;;;5052703;28;20128;-69
2022/05/09 06:42:27;;;;;;;15.55;8.77;;;16.10;99.90;;;;;;5053012;28;20512;-69
2022/05/09 06:44:54;;;;;;;12.95;7.18;;;16.20;99.90;;;;;;5052876;28;20037;-70
2022/05/09 06:47:20;;;;;;;9.32;6.30;;;16.30;99.90;;;;;;5052864;28;20076;-71
2022/05/09 06:49:46;;;;;;;34.00;15.27;;;16.60;99.90;;;;;;5052858;28;20070;-69
2022/05/09 06:52:12;;;;;;;19.00;8.90;;;16.60;99.90;;;;;;5052584;28;20517;-70
2022/05/09 06:54:38;;;;;;;7.22;5.82;;;16.80;99.90;;;;;;5052498;28;20033;-70
2022/05/09 06:57:05;;;;;;;8.43;5.60;;;16.90;99.90;;;;;;5052796;28;20043;-71
2022/05/09 06:59:34;;;;;;;7.82;5.70;;;17.20;99.90;;;;;;5052649;28;20041;-71
2022/05/09 07:02:00;;;;;;;10.10;6.00;;;17.30;99.90;;;;;;5052812;28;20048;-70
2022/05/09 07:04:27;;;;;;;13.13;7.70;;;17.40;99.90;;;;;;5052705;28;20527;-69
2022/05/09 07:06:53;;;;;;;19.65;9.48;;;17.60;99.90;;;;;;5052512;28;20131;-70
2022/05/09 07:09:18;;;;;;;24.70;10.25;;;17.40;99.90;;;;;;5052361;28;20604;-70
2022/05/09 07:11:44;;;;;;;12.23;6.88;;;17.70;99.90;;;;;;5052549;28;20040;-70
2022/05/09 07:14:10;;;;;;;6.40;4.90;;;17.70;99.90;;;;;;5052499;28;20037;-69
2022/05/09 07:16:36;;;;;;;8.73;5.68;;;18.00;99.90;;;;;;5052596;28;20067;-70
2022/05/09 07:19:06;;;;;;;7.05;5.53;;;18.30;99.90;;;;;;5052693;28;20487;-70
2022/05/09 07:21:32;;;;;;;8.13;5.47;;;18.40;99.90;;;;;;5052339;28;20043;-69
2022/05/09 07:23:59;;;;;;;7.55;5.18;;;18.50;99.90;;;;;;5052500;28;20115;-70
2022/05/09 07:26:25;;;;;;;8.07;5.35;;;18.70;99.90;;;;;;5052583;28;20099;-70
2022/05/09 07:28:51;;;;;;;18.58;9.63;;;18.60;99.90;;;;;;5052541;28;20445;-70
2022/05/09 07:31:17;;;;;;;13.57;6.60;;;18.40;99.90;;;;;;5054796;28;20451;-70
2022/05/09 07:33:43;;;;;;;13.00;6.65;;;18.60;99.90;;;;;;5056356;28;20059;-70
2022/05/09 07:36:09;;;;;;;10.52;6.45;;;18.50;99.90;;;;;;5056049;28;20556;-70
2022/05/09 07:38:35;;;;;;;8.70;6.70;;;18.70;99.90;;;;;;5056045;28;20112;-70
2022/05/09 07:41:00;;;;;;;6.85;4.95;;;18.80;99.90;;;;;;5055995;28;20044;-70
2022/05/09 07:43:28;;;;;;;8.60;5.45;;;18.90;99.90;;;;;;5056000;28;20047;-70
2022/05/09 07:45:55;;;;;;;9.30;5.13;;;19.30;99.90;;;;;;5055809;28;20068;-71
2022/05/09 07:48:26;;;;;;;8.13;5.70;;;19.50;99.90;;;;;;5055562;28;20049;-70
2022/05/09 07:50:54;;;;;;;6.63;4.95;;;19.50;99.90;;;;;;5055661;28;20041;-68
2022/05/09 07:53:30;;;;;;;6.95;4.68;;;19.70;99.90;;;;;;5066640;28;20044;-70
2022/05/09 07:55:56;;;;;;;8.40;4.78;;;19.50;99.90;;;;;;5075644;28;20032;-71
2022/05/09 07:58:22;;;;;;;8.85;5.18;;;19.90;99.90;;;;;;5075668;28;20044;-71
2022/05/09 08:00:48;;;;;;;6.75;4.32;;;19.90;99.90;;;;;;5075510;28;20036;-70
2022/05/09 08:03:17;;;;;;;6.55;5.35;;;19.60;99.90;;;;;;5075394;28;20499;-70
2022/05/09 08:05:44;;;;;;;10.30;5.47;;;20.00;99.90;;;;;;5075490;28;20530;-68
2022/05/09 08:08:10;;;;;;;12.93;8.93;;;20.30;99.90;;;;;;5075502;28;20040;-70
2022/05/09 08:10:37;;;;;;;6.72;4.55;;;20.60;99.90;;;;;;5075475;28;20071;-71
2022/05/09 08:13:04;;;;;;;4.40;4.00;;;20.70;99.90;;;;;;5075506;28;20040;-69
2022/05/09 08:15:31;;;;;;;6.55;4.72;;;20.80;99.90;;;;;;5075253;28;20470;-71
2022/05/09 08:17:58;;;;;;;6.80;4.78;;;20.60;99.90;;;;;;5075167;28;20090;-71
2022/05/09 08:20:24;;;;;;;21.58;5.05;;;21.30;99.90;;;;;;5075191;28;20044;-69
2022/05/09 08:23:03;;;;;;;8.38;4.47;;;21.10;99.90;;;;;;5075237;28;20119;-70
2022/05/09 08:25:28;;;;;;;6.80;4.72;;;21.10;99.90;;;;;;5075329;28;20037;-70
2022/05/09 08:27:54;;;;;;;5.68;4.55;;;21.00;99.90;;;;;;5074800;28;20055;-71
2022/05/09 08:30:20;;;;;;;11.05;5.32;;;21.20;99.90;;;;;;5074851;28;20032;-71
2022/05/09 08:32:46;;;;;;;7.20;4.53;;;21.10;99.90;;;;;;5074876;28;20033;-70
2022/05/09 08:35:13;;;;;;;10.63;4.78;;;21.30;99.90;;;;;;5074827;28;20095;-69
2022/05/09 08:37:39;;;;;;;7.03;4.38;;;21.70;99.90;;;;;;5075310;28;20094;-68
2022/05/09 08:40:06;;;;;;;7.13;4.07;;;21.60;99.90;;;;;;5075020;28;20056;-70
2022/05/09 08:42:51;;;;;;;7.63;4.60;;;21.60;99.90;;;;;;5074759;28;20043;-70
2022/05/09 08:45:35;;;;;;;5.40;4.45;;;22.00;99.50;;;;;;5074816;28;20480;-70
2022/05/09 08:48:22;;;;;;;5.18;4.47;;;22.00;99.90;;;;;;5074562;28;20041;-70
2022/05/09 08:51:06;;;;;;;8.85;4.90;;;22.30;99.90;;;;;;5074490;28;20511;-70
2022/05/09 08:53:38;;;;;;;5.40;4.15;;;22.40;99.90;;;;;;5074486;28;20499;-70
2022/05/09 08:56:04;;;;;;;10.00;4.60;;;22.50;99.90;;;;;;5074599;28;20064;-71
2022/05/09 08:58:45;;;;;;;7.10;4.88;;;22.60;99.70;;;;;;5074556;28;20037;-70
2022/05/09 09:01:17;;;;;;;5.03;4.45;;;21.50;99.90;;;;;;5074550;28;20043;-71
2022/05/09 09:03:59;;;;;;;10.85;6.82;;;22.00;99.90;;;;;;5074368;28;20131;-68
2022/05/09 09:06:51;;;;;;;6.75;5.30;;;21.70;99.90;;;;;;5074391;28;20051;-70
2022/05/09 09:09:43;;;;;;;9.48;6.28;;;21.50;99.90;;;;;;5074253;28;20083;-70
2022/05/09 09:12:29;;;;;;;7.05;4.65;;;21.20;99.90;;;;;;5071885;28;20041;-71
2022/05/09 09:15:06;;;;;;;7.03;4.72;;;21.70;99.80;;;;;;5066662;28;20598;-71
2022/05/09 09:17:57;;;;;;;10.50;5.07;;;21.60;99.90;;;;;;5074162;28;20044;-70
2022/05/09 09:20:35;;;;;;;;;;;21.80;99.90;;;;;;5074519;28;20044;-71
2022/05/09 09:23:16;;;;;;;4.90;4.25;;;22.40;99.90;;;;;;5074140;28;19942;-70
2022/05/09 09:25:41;;;;;;;;;;;22.10;99.90;;;;;;5074489;28;20067;-68
2022/05/09 09:28:46;;;;;;;10.05;5.28;;;21.90;99.90;;;;;;5073847;28;19955;-71
2022/05/09 09:31:15;;;;;;;6.28;4.72;;;21.70;99.50;;;;;;5073989;28;20369;-71
2022/05/09 09:33:51;;;;;;;6.25;4.63;;;22.40;99.90;;;;;;5073631;28;20101;-71
2022/05/09 09:36:17;;;;;;;5.75;4.47;;;22.30;99.90;;;;;;5073704;28;20089;-71
2022/05/09 09:39:07;;;;;;;12.98;5.47;;;21.90;99.60;;;;;;5073525;28;20048;-71
2022/05/09 09:41:35;;;;;;;7.65;4.70;;;22.20;98.80;;;;;;5073963;28;20098;-71
2022/05/09 09:44:14;;;;;;;6.22;4.75;;;22.10;99.90;;;;;;5073646;28;20131;-70
2022/05/09 09:47:11;;;;;;;7.53;5.25;;;22.40;99.80;;;;;;5073435;28;20044;-70
2022/05/09 09:49:42;;;;;;;5.63;5.10;;;22.40;98.30;;;;;;5070513;28;20076;-71
2022/05/09 09:52:28;;;;;;;5.90;5.18;;;21.90;97.20;;;;;;5057583;28;20127;-68
2022/05/09 09:55:00;;;;;;;5.70;5.07;;;22.10;98.70;;;;;;5052684;28;20112;-71
2022/05/09 09:57:29;;;;;;;11.05;5.28;;;22.50;98.60;;;;;;5053449;28;20041;-71
2022/05/09 09:59:57;;;;;;;7.28;5.72;;;22.30;98.00;;;;;;5053303;28;20036;-70
2022/05/09 10:02:30;;;;;;;6.75;5.28;;;22.20;99.00;;;;;;5053265;28;20107;-70
2022/05/09 10:05:08;;;;;;;7.65;4.78;;;22.10;98.60;;;;;;5053416;28;20045;-71
2022/05/09 10:07:34;;;;;;;6.72;5.50;;;22.00;98.50;;;;;;5053271;28;20049;-70
2022/05/09 10:10:19;;;;;;;6.03;4.63;;;21.60;98.80;;;;;;5053140;28;20040;-71
2022/05/09 10:12:49;;;;;;;6.28;5.68;;;21.30;99.10;;;;;;5072780;28;20044;-71
2022/05/09 10:15:23;;;;;;;7.07;5.70;;;21.20;98.70;;;;;;5073157;28;20032;-71
2022/05/09 10:17:49;;;;;;;8.05;5.45;;;22.10;98.90;;;;;;5073342;28;20091;-70
2022/05/09 10:20:40;;;;;;;13.48;5.88;;;22.60;99.20;;;;;;5073155;28;20068;-71
2022/05/09 10:26:24;;;;;;;8.75;5.40;;;22.30;97.80;;;;;;5073036;28;20085;-71
2022/05/09 10:28:55;;;;;;;7.53;5.43;;;21.30;97.70;;;;;;5072975;28;20079;-71
2022/05/09 10:31:27;;;;;;;6.22;5.03;;;20.40;98.90;;;;;;5072933;28;20036;-71
2022/05/09 10:34:05;;;;;;;5.85;4.45;;;20.30;98.80;;;;;;5072855;28;20040;-71
2022/05/09 10:36:43;;;;;;;5.18;4.43;;;20.90;99.20;;;;;;5072461;28;20064;-71
2022/05/09 10:39:20;;;;;;;5.82;4.60;;;21.60;98.60;;;;;;5052672;28;20065;-71
2022/05/09 10:41:51;;;;;;;6.85;5.45;;;21.50;98.50;;;;;;5052843;28;20530;-71
2022/05/09 10:44:47;;;;;;;7.53;5.05;;;21.20;98.10;;;;;;5052929;28;20041;-71
2022/05/09 10:47:42;;;;;;;6.15;5.30;;;21.00;99.00;;;;;;5052667;28;20037;-71
2022/05/09 10:50:14;;;;;;;6.65;5.57;;;20.90;98.90;;;;;;5052527;28;20048;-71
2022/05/09 10:53:16;;;;;;;5.72;4.95;;;20.50;98.60;;;;;;5052876;28;20037;-71
2022/05/09 10:55:57;;;;;;;11.55;5.80;;;21.20;98.60;;;;;;5052733;28;20045;-71
2022/05/09 10:58:25;;;;;;;5.47;4.35;;;21.10;99.90;;;;;;5052474;28;20045;-70
2022/05/09 11:01:07;;;;;;;7.05;5.28;;;22.10;99.00;;;;;;5052659;28;21095;-71
2022/05/09 11:03:39;;;;;;;8.38;5.65;;;21.90;98.30;;;;;;5052691;28;20051;-69
2022/05/09 11:06:18;;;;;;;8.60;5.32;;;21.50;97.80;;;;;;5056401;28;20037;-71
2022/05/09 11:09:01;;;;;;;7.28;5.15;;;21.50;97.80;;;;;;5056467;28;20064;-70
2022/05/09 11:11:45;;;;;;;9.00;5.40;;;21.50;97.90;;;;;;5056620;28;20029;-71
2022/05/09 11:15:01;;;;;;;7.32;4.80;;;22.10;98.30;;;;;;5056587;28;20045;-71
2022/05/09 11:17:36;;;;;;;5.28;4.50;;;22.20;98.00;;;;;;5047414;28;20040;-71
2022/05/09 11:20:28;;;;;;;8.00;4.55;;;22.50;97.70;;;;;;5056369;28;20076;-71
2022/05/09 11:23:06;;;;;;;5.38;4.65;;;21.70;97.60;;;;;;5056408;28;20037;-71
2022/05/09 11:25:49;;;;;;;5.07;4.55;;;21.70;97.80;;;;;;5056359;28;20079;-71
2022/05/09 11:28:39;;;;;;;5.75;3.97;;;21.50;97.80;;;;;;5056240;28;20128;-70
2022/05/09 11:31:23;;;;;;;7.00;4.50;;;21.60;98.30;;;;;;5056324;28;20040;-68
2022/05/09 11:34:18;;;;;;;4.57;3.92;;;22.00;97.70;;;;;;5054756;28;20041;-68
2022/05/09 11:36:59;;;;;;;8.48;4.80;;;22.30;98.40;;;;;;5054748;28;20507;-70
2022/05/09 11:39:44;;;;;;;9.15;4.78;;;21.90;96.90;;;;;;5056003;28;20503;-71
2022/05/09 11:45:17;;;;;;;5.50;4.32;;;22.40;98.00;;;;;;5055801;28;20133;-68
2022/05/09 11:48:15;;;;;;;7.65;4.60;;;22.20;97.70;;;;;;5053453;28;20443;-71
2022/05/09 11:51:12;;;;;;;6.70;4.72;;;21.90;97.30;;;;;;5054107;28;20048;-68
2022/05/09 11:53:44;;;;;;;5.63;4.97;;;21.80;97.20;;;;;;5053917;28;20105;-68
2022/05/09 11:56:10;;;;;;;7.22;5.45;;;21.40;97.10;;;;;;5053909;28;20040;-69
2022/05/09 11:58:39;;;;;;;146.07;15.00;;;22.00;97.60;;;;;;5052509;28;20496;-70
2022/05/09 12:01:05;;;;;;;7.18;4.78;;;22.10;98.10;;;;;;5053729;28;20048;-71
2022/05/09 12:03:42;;;;;;;11.15;4.82;;;22.00;97.50;;;;;;5053779;28;20128;-69
2022/05/09 12:06:26;;;;;;;6.72;5.20;;;22.50;99.00;;;;;;5053846;28;20048;-71
2022/05/09 12:08:53;;;;;;;5.45;4.35;;;22.40;96.50;;;;;;5055478;28;20466;-71
2022/05/09 12:11:32;;;;;;;7.63;4.85;;;22.10;97.10;;;;;;5055300;28;20500;-71
2022/05/09 12:14:01;;;;;;;7.72;4.88;;;22.20;97.80;;;;;;5055442;28;20037;-71
2022/05/09 12:16:36;;;;;;;7.25;5.18;;;22.40;99.90;;;;;;5054643;28;20041;-71
2022/05/09 12:19:20;;;;;;;5.72;4.60;;;22.30;97.90;;;;;;5055202;28;20125;-68
2022/05/09 12:22:26;;;;;;;5.13;4.63;;;22.30;97.70;;;;;;5053881;28;20501;-70
2022/05/09 12:24:54;;;;;;;4.70;4.30;;;22.30;97.90;;;;;;5051161;28;20039;-71
2022/05/09 12:27:38;;;;;;;6.95;4.28;;;21.90;97.40;;;;;;5055090;28;20136;-70
2022/05/09 12:30:30;;;;;;;6.50;5.38;;;22.10;98.10;;;;;;5055050;28;20128;-70
2022/05/09 12:32:56;;;;;;;7.45;4.50;;;22.10;96.80;;;;;;5055011;28;20114;-70
2022/05/09 12:35:22;;;;;;;7.80;5.22;;;22.20;97.80;;;;;;5055070;28;20116;-71
2022/05/09 12:37:48;;;;;;;6.32;4.20;;;22.40;97.90;;;;;;5055021;28;20049;-71
2022/05/09 12:40:25;;;;;;;5.88;4.82;;;22.60;97.40;;;;;;5054998;28;20039;-71
2022/05/09 12:43:01;;;;;;;7.10;4.03;;;21.90;97.00;;;;;;5054953;28;20084;-70
2022/05/09 12:45:28;;;;;;;5.93;3.85;;;22.20;97.40;;;;;;5054917;28;20098;-72
2022/05/09 12:47:55;;;;;;;4.30;3.90;;;22.40;97.40;;;;;;5054761;28;20074;-71
2022/05/09 12:50:35;;;;;;;7.70;4.28;;;21.60;96.70;;;;;;5054609;28;20074;-70
2022/05/09 12:53:08;;;;;;;7.30;4.32;;;21.40;96.30;;;;;;5073407;28;20045;-71
2022/05/09 12:55:52;;;;;;;4.53;4.00;;;21.70;97.70;;;;;;5074650;28;20036;-71
2022/05/09 12:58:42;;;;;;;6.85;4.50;;;21.80;96.70;;;;;;5073084;28;20106;-72
2022/05/09 13:01:16;;;;;;;6.70;4.22;;;21.50;96.60;;;;;;5073730;28;20101;-71
2022/05/09 13:03:52;;;;;;;5.13;4.05;;;21.60;96.80;;;;;;5074396;28;20054;-71
2022/05/09 13:06:24;;;;;;;5.13;3.97;;;22.20;98.00;;;;;;5074358;28;20047;-71
2022/05/09 13:08:50;;;;;;;13.60;6.03;;;21.90;96.10;;;;;;5074230;28;20106;-68
2022/05/09 13:11:23;;;;;;;7.72;4.50;;;21.80;96.80;;;;;;5074350;28;20044;-71
2022/05/09 13:14:10;;;;;;;5.32;4.82;;;21.80;96.70;;;;;;5074239;28;20044;-71
2022/05/09 13:16:41;;;;;;;8.55;4.20;;;21.60;96.80;;;;;;5073862;28;20507;-71
2022/05/09 13:19:15;;;;;;;5.70;4.80;;;21.70;97.70;;;;;;5074042;28;20032;-72